createdAt,value
2023-03-20T00:02:22.201Z,3.10
2023-03-20T00:05:26.542Z,3.23
2023-03-20T00:08:11.986Z,3.90
2023-03-20T00:10:59.050Z,4.00
2023-03-20T00:13:44.351Z,3.70
2023-03-20T00:16:49.187Z,3.90
2023-03-20T00:19:34.834Z,3.13
2023-03-20T00:22:20.461Z,3.23
2023-03-20T00:25:06.496Z,3.07
2023-03-20T00:27:52.201Z,3.07
2023-03-20T00:30:37.603Z,3.03
2023-03-20T00:33:22.814Z,3.00
2023-03-20T00:36:09.531Z,2.90
2023-03-20T00:38:55.519Z,2.73
2023-03-20T00:41:52.707Z,3.00
2023-03-20T00:44:50.171Z,3.10
2023-03-20T00:47:37.647Z,2.70
2023-03-20T00:50:28.282Z,3.23
2023-03-20T00:53:13.469Z,3.07
2023-03-20T00:55:59.496Z,3.30
2023-03-20T00:58:44.615Z,3.20
2023-03-20T01:01:31.392Z,3.80
2023-03-20T01:04:19.435Z,3.37
2023-03-20T01:07:06.007Z,3.73
2023-03-20T01:09:51.211Z,3.47
2023-03-20T01:12:38.923Z,3.53
2023-03-20T01:15:31.539Z,3.80
2023-03-20T01:18:18.287Z,3.60
2023-03-20T01:21:03.610Z,3.40
2023-03-20T01:23:49.722Z,3.77
2023-03-20T01:26:39.525Z,3.30
2023-03-20T01:29:26.622Z,3.20
2023-03-20T01:32:14.961Z,3.27
2023-03-20T01:35:01.181Z,3.13
2023-03-20T01:37:46.991Z,3.73
2023-03-20T01:40:43.400Z,3.90
2023-03-20T01:43:29.748Z,3.70
2023-03-20T01:46:17.168Z,3.97
2023-03-20T01:49:28.439Z,3.87
2023-03-20T01:52:17.281Z,4.03
2023-03-20T01:55:02.458Z,4.30
2023-03-20T01:57:48.943Z,4.10
2023-03-20T02:00:35.613Z,4.20
2023-03-20T02:03:23.025Z,4.20
2023-03-20T02:06:19.563Z,3.90
2023-03-20T02:09:23.790Z,3.60
2023-03-20T02:12:10.952Z,3.40
2023-03-20T02:14:57.628Z,3.80
2023-03-20T02:18:05.422Z,3.60
2023-03-20T02:21:13.841Z,3.50
2023-03-20T02:24:14.497Z,3.70
2023-03-20T02:27:12.019Z,3.60
2023-03-20T02:30:18.299Z,3.73
2023-03-20T02:33:25.553Z,3.37
2023-03-20T02:36:40.765Z,3.60
2023-03-20T02:39:50.924Z,3.70
2023-03-20T02:43:02.553Z,4.00
2023-03-20T02:45:59.274Z,4.03
2023-03-20T02:48:53.738Z,3.97
2023-03-20T02:52:00.223Z,3.80
2023-03-20T02:54:54.470Z,4.00
2023-03-20T02:57:39.915Z,3.57
2023-03-20T03:00:36.642Z,4.47
2023-03-20T03:03:37.054Z,4.90
2023-03-20T03:06:28.288Z,5.13
2023-03-20T03:09:19.865Z,4.63
2023-03-20T03:12:12.384Z,4.67
2023-03-20T03:15:03.806Z,5.00
2023-03-20T03:17:49.514Z,4.77
2023-03-20T03:20:39.582Z,4.67
2023-03-20T03:23:46.737Z,4.60
2023-03-20T03:26:38.416Z,4.47
2023-03-20T03:29:26.162Z,3.97
2023-03-20T03:32:35.712Z,4.97
2023-03-20T03:35:22.433Z,5.27
2023-03-20T03:38:37.047Z,5.90
2023-03-20T03:41:25.044Z,6.20
2023-03-20T03:44:21.799Z,6.70
2023-03-20T03:47:12.745Z,6.33
2023-03-20T03:50:04.601Z,6.17
2023-03-20T03:52:51.890Z,6.30
2023-03-20T03:55:45.750Z,6.30
2023-03-20T03:58:36.087Z,6.43
2023-03-20T04:01:23.916Z,6.60
2023-03-20T04:04:10.563Z,8.30
2023-03-20T04:06:56.419Z,7.70
2023-03-20T04:09:42.093Z,7.00
2023-03-20T04:12:37.775Z,8.10
2023-03-20T04:15:24.582Z,7.67
2023-03-20T04:18:17.763Z,7.57
2023-03-20T04:21:04.605Z,7.00
2023-03-20T04:23:50.311Z,6.23
2023-03-20T04:26:36.089Z,7.10
2023-03-20T04:29:21.715Z,7.00
2023-03-20T04:32:17.999Z,6.63
2023-03-20T04:35:27.076Z,6.23
2023-03-20T04:38:20.788Z,6.40
2023-03-20T04:41:07.337Z,6.03
2023-03-20T04:43:52.706Z,6.40
2023-03-20T04:46:37.914Z,7.07
2023-03-20T04:49:31.672Z,6.87
2023-03-20T04:52:17.403Z,7.73
2023-03-20T04:55:04.455Z,7.23
2023-03-20T04:57:50.851Z,7.30
2023-03-20T05:00:36.169Z,8.03
2023-03-20T05:03:23.961Z,7.50
2023-03-20T05:06:10.500Z,7.67
2023-03-20T05:09:00.115Z,7.70
2023-03-20T05:11:47.352Z,7.40
2023-03-20T05:14:52.889Z,7.93
2023-03-20T05:17:57.056Z,8.43
2023-03-20T05:20:53.092Z,8.43
2023-03-20T05:23:51.727Z,8.27
2023-03-20T05:26:55.170Z,8.60
2023-03-20T05:30:00.838Z,8.77
2023-03-20T05:33:15.713Z,8.73
2023-03-20T05:36:11.990Z,7.97
2023-03-20T05:39:27.129Z,8.17
2023-03-20T05:42:18.608Z,8.30
2023-03-20T05:45:24.799Z,8.80
2023-03-20T05:48:49.007Z,8.37
2023-03-20T05:52:02.786Z,8.33
2023-03-20T05:55:11.267Z,8.30
2023-03-20T05:58:06.064Z,8.30
2023-03-20T06:01:22.024Z,8.38
2023-03-20T06:04:07.452Z,8.73
2023-03-20T06:07:08.595Z,9.00
2023-03-20T06:09:55.878Z,8.10
2023-03-20T06:12:41.531Z,8.70
2023-03-20T06:15:28.329Z,8.47
2023-03-20T06:18:20.943Z,8.90
2023-03-20T06:21:06.836Z,9.00
2023-03-20T06:23:52.384Z,8.93
2023-03-20T06:26:40.504Z,8.43
2023-03-20T06:29:29.232Z,8.70
2023-03-20T06:32:23.841Z,8.57
2023-03-20T06:35:11.433Z,8.20
2023-03-20T06:38:02.099Z,8.80
2023-03-20T06:40:47.451Z,9.30
2023-03-20T06:43:36.276Z,8.37
2023-03-20T06:46:21.804Z,9.17
2023-03-20T06:49:07.340Z,9.25
2023-03-20T06:51:53.971Z,8.88
2023-03-20T06:54:44.710Z,9.33
2023-03-20T06:57:30.030Z,9.20
2023-03-20T07:00:16.091Z,9.47
2023-03-20T07:03:02.443Z,9.70
2023-03-20T07:05:48.108Z,9.20
2023-03-20T07:08:35.339Z,9.68
2023-03-20T07:11:21.140Z,9.73
2023-03-20T07:14:07.479Z,9.67
2023-03-20T07:17:03.994Z,10.27
2023-03-20T07:19:51.353Z,9.63
2023-03-20T07:22:37.007Z,9.40
2023-03-20T07:25:42.263Z,9.50
2023-03-20T07:28:30.886Z,9.37
2023-03-20T07:31:29.051Z,9.43
2023-03-20T07:34:27.505Z,9.32
2023-03-20T07:37:14.282Z,9.18
2023-03-20T07:40:05.836Z,9.35
2023-03-20T07:42:53.404Z,9.30
2023-03-20T07:46:06.534Z,8.93
2023-03-20T07:48:52.899Z,9.88
2023-03-20T07:51:38.423Z,10.07
2023-03-20T07:54:24.419Z,9.82
2023-03-20T07:57:09.949Z,9.93
2023-03-20T07:59:55.093Z,9.75
2023-03-20T08:02:40.613Z,10.27
2023-03-20T08:05:26.122Z,10.82
2023-03-20T08:08:11.670Z,9.95
2023-03-20T08:10:57.371Z,10.03
2023-03-20T08:13:43.055Z,10.80
2023-03-20T08:16:28.183Z,10.43
2023-03-20T08:19:13.703Z,11.15
2023-03-20T08:21:59.025Z,10.80
2023-03-20T08:24:44.532Z,10.88
2023-03-20T08:27:30.215Z,10.35
2023-03-20T08:30:15.824Z,11.82
2023-03-20T08:33:01.054Z,11.60
2023-03-20T08:35:59.192Z,11.17
2023-03-20T08:38:44.532Z,10.98
2023-03-20T08:41:29.635Z,10.85
2023-03-20T08:44:14.814Z,11.48
2023-03-20T08:47:00.239Z,10.80
2023-03-20T08:49:45.665Z,11.10
2023-03-20T08:52:30.889Z,10.48
2023-03-20T08:55:16.549Z,10.93
2023-03-20T08:58:02.282Z,11.25
2023-03-20T09:00:47.866Z,12.60
2023-03-20T09:03:33.256Z,12.40
2023-03-20T09:06:18.777Z,13.10
2023-03-20T09:09:05.021Z,12.50
2023-03-20T09:11:50.446Z,13.18
2023-03-20T09:14:35.753Z,12.25
2023-03-20T09:17:21.201Z,14.63
2023-03-20T09:20:06.951Z,14.57
2023-03-20T09:22:52.372Z,14.80
2023-03-20T09:25:38.065Z,14.43
2023-03-20T09:28:23.680Z,15.38
2023-03-20T09:31:09.394Z,16.48
2023-03-20T09:33:55.082Z,15.77
2023-03-20T09:36:40.276Z,15.45
2023-03-20T09:39:25.579Z,15.18
2023-03-20T09:42:16.431Z,15.52
2023-03-20T09:45:37.263Z,15.73
2023-03-20T09:48:35.284Z,15.50
2023-03-20T09:51:36.023Z,15.80
2023-03-20T09:54:43.379Z,15.32
2023-03-20T09:57:41.357Z,14.90
2023-03-20T10:00:29.447Z,14.65
2023-03-20T10:03:39.106Z,13.63
2023-03-20T10:06:24.518Z,14.32
2023-03-20T10:09:25.159Z,12.88
2023-03-20T10:12:34.126Z,13.90
2023-03-20T10:15:28.702Z,13.27
2023-03-20T10:18:24.808Z,13.43
2023-03-20T10:21:17.521Z,14.52
2023-03-20T10:24:06.186Z,14.35
2023-03-20T10:26:55.659Z,13.30
2023-03-20T10:30:02.956Z,13.02
2023-03-20T10:33:00.679Z,14.52
2023-03-20T10:36:04.171Z,14.43
2023-03-20T10:39:11.072Z,14.32
2023-03-20T10:42:00.801Z,16.33
2023-03-20T10:44:54.339Z,15.43
2023-03-20T10:47:42.495Z,15.98
2023-03-20T10:50:40.199Z,15.27
2023-03-20T10:53:31.533Z,15.45
2023-03-20T10:56:29.054Z,15.77
2023-03-20T10:59:27.645Z,15.20
2023-03-20T11:02:14.960Z,15.68
2023-03-20T11:05:02.445Z,14.18
2023-03-20T11:07:51.926Z,13.88
2023-03-20T11:10:38.754Z,13.48
2023-03-20T11:13:39.263Z,13.35
2023-03-20T11:16:35.540Z,13.30
2023-03-20T11:19:23.553Z,12.90
2023-03-20T11:22:23.514Z,12.75
2023-03-20T11:25:24.908Z,12.10
2023-03-20T11:28:26.881Z,10.98
2023-03-20T11:31:27.604Z,10.77
2023-03-20T11:34:15.833Z,10.60
2023-03-20T11:37:10.508Z,10.73
2023-03-20T11:40:31.286Z,9.70
2023-03-20T11:43:25.098Z,8.95
2023-03-20T11:46:13.610Z,9.60
2023-03-20T11:49:05.921Z,8.82
2023-03-20T11:51:52.646Z,8.43
2023-03-20T11:54:45.815Z,8.45
2023-03-20T11:57:41.058Z,8.18
2023-03-20T12:00:38.029Z,8.00
2023-03-20T12:03:41.629Z,7.70
2023-03-20T12:06:37.459Z,8.40
2023-03-20T12:09:51.970Z,7.78
2023-03-20T12:12:56.711Z,8.05
2023-03-20T12:15:47.089Z,7.93
2023-03-20T12:18:38.899Z,7.90
2023-03-20T12:21:46.628Z,7.72
2023-03-20T12:24:45.179Z,7.10
2023-03-20T12:27:36.855Z,5.82
2023-03-20T12:31:04.087Z,5.30
2023-03-20T12:33:52.479Z,5.63
2023-03-20T12:36:41.591Z,5.10
2023-03-20T12:39:33.999Z,5.63
2023-03-20T12:42:49.624Z,5.40
2023-03-20T12:45:42.688Z,5.38
2023-03-20T12:48:41.540Z,5.03
2023-03-20T12:51:47.108Z,5.35
2023-03-20T12:54:51.050Z,5.50
2023-03-20T12:57:52.770Z,5.22
2023-03-20T13:00:46.007Z,5.18
2023-03-20T13:03:46.408Z,5.90
2023-03-20T13:06:52.692Z,5.63
2023-03-20T13:09:56.803Z,5.90
2023-03-20T13:13:16.268Z,5.53
2023-03-20T13:16:24.060Z,5.60
2023-03-20T13:19:25.999Z,6.35
2023-03-20T13:22:28.071Z,5.65
2023-03-20T13:25:40.823Z,5.50
2023-03-20T13:28:56.844Z,5.50
2023-03-20T13:32:01.141Z,5.28
2023-03-20T13:35:14.823Z,5.35
2023-03-20T13:38:12.166Z,5.05
2023-03-20T13:41:02.219Z,4.97
2023-03-20T13:43:51.147Z,5.13
2023-03-20T13:46:45.900Z,5.10
2023-03-20T13:49:38.426Z,5.28
2023-03-20T13:52:28.708Z,5.97
2023-03-20T13:55:24.020Z,5.22
2023-03-20T13:58:43.562Z,6.07
2023-03-20T14:01:46.062Z,5.45
2023-03-20T14:04:32.530Z,4.95
2023-03-20T14:07:30.118Z,5.03
2023-03-20T14:10:21.229Z,5.00
2023-03-20T14:13:19.135Z,4.65
2023-03-20T14:16:08.850Z,4.93
2023-03-20T14:19:06.343Z,4.57
2023-03-20T14:21:55.519Z,4.38
2023-03-20T14:24:50.884Z,4.88
2023-03-20T14:27:54.581Z,4.82
2023-03-20T14:30:39.872Z,4.65
2023-03-20T14:33:30.328Z,4.30
2023-03-20T14:36:21.432Z,4.20
2023-03-20T14:39:38.703Z,4.50
2023-03-20T14:42:39.716Z,4.40
2023-03-20T14:45:51.564Z,4.32
2023-03-20T14:48:50.589Z,4.40
2023-03-20T14:51:45.788Z,4.25
2023-03-20T14:54:31.058Z,4.00
2023-03-20T14:57:19.407Z,4.18
2023-03-20T15:00:05.775Z,4.28
2023-03-20T15:02:53.782Z,4.50
2023-03-20T15:05:41.112Z,4.80
2023-03-20T15:08:31.388Z,4.35
2023-03-20T15:11:17.376Z,4.15
2023-03-20T15:14:08.771Z,4.25
2023-03-20T15:16:58.921Z,4.13
2023-03-20T15:19:45.016Z,4.30
2023-03-20T15:22:30.391Z,8.48
2023-03-20T15:25:17.607Z,4.40
2023-03-20T15:28:07.923Z,4.35
2023-03-20T15:30:57.315Z,3.72
2023-03-20T15:33:42.914Z,3.88
2023-03-20T15:36:34.543Z,3.80
2023-03-20T15:39:23.286Z,3.75
2023-03-20T15:42:14.772Z,3.83
2023-03-20T15:45:00.222Z,3.70
2023-03-20T15:47:45.387Z,4.07
2023-03-20T15:50:38.642Z,4.30
2023-03-20T15:53:30.694Z,4.40
2023-03-20T15:56:19.728Z,3.95
2023-03-20T15:59:05.175Z,4.47
2023-03-20T16:01:55.611Z,4.30
2023-03-20T16:04:50.913Z,4.22
2023-03-20T16:07:36.215Z,4.38
2023-03-20T16:10:28.677Z,3.85
2023-03-20T16:13:15.309Z,3.65
2023-03-20T16:16:03.193Z,3.28
2023-03-20T16:18:49.348Z,3.30
2023-03-20T16:21:38.799Z,2.88
2023-03-20T16:24:30.736Z,2.75
2023-03-20T16:27:24.226Z,2.53
2023-03-20T16:30:16.679Z,2.33
2023-03-20T16:33:07.081Z,2.50
2023-03-20T16:35:52.481Z,2.60
2023-03-20T16:38:37.928Z,2.20
2023-03-20T16:41:34.866Z,2.78
2023-03-20T16:44:28.102Z,2.60
2023-03-20T16:47:13.718Z,2.20
2023-03-20T16:50:21.572Z,2.60
2023-03-20T16:53:16.101Z,2.30
2023-03-20T16:56:02.730Z,2.28
2023-03-20T16:58:47.974Z,2.45
2023-03-20T17:01:33.582Z,2.35
2023-03-20T17:04:33.570Z,2.03
2023-03-20T17:07:19.922Z,2.20
2023-03-20T17:10:17.733Z,2.20
2023-03-20T17:13:03.202Z,2.05
2023-03-20T17:15:48.483Z,2.30
2023-03-20T17:18:37.700Z,2.50
2023-03-20T17:21:22.841Z,2.00
2023-03-20T17:24:09.434Z,2.53
2023-03-20T17:26:55.645Z,2.20
2023-03-20T17:29:41.792Z,2.33
2023-03-20T17:32:27.274Z,2.33
2023-03-20T17:35:12.900Z,2.30
2023-03-20T17:37:59.559Z,2.30
2023-03-20T17:40:45.583Z,2.17
2023-03-20T17:43:31.210Z,2.30
2023-03-20T17:46:22.166Z,2.40
2023-03-20T17:49:13.577Z,2.13
2023-03-20T17:51:58.756Z,2.20
2023-03-20T17:54:45.035Z,2.45
2023-03-20T17:57:38.671Z,2.38
2023-03-20T18:00:24.546Z,2.33
2023-03-20T18:03:10.564Z,2.50
2023-03-20T18:05:56.215Z,2.70
2023-03-20T18:08:41.822Z,2.60
2023-03-20T18:11:28.013Z,2.50
2023-03-20T18:14:13.415Z,2.38
2023-03-20T18:17:01.593Z,2.42
2023-03-20T18:19:47.691Z,2.42
2023-03-20T18:22:33.160Z,2.65
2023-03-20T18:25:24.497Z,2.50
2023-03-20T18:28:15.500Z,2.38
2023-03-20T18:31:01.038Z,2.95
2023-03-20T18:33:52.336Z,2.70
2023-03-20T18:36:37.543Z,2.33
2023-03-20T18:39:24.449Z,2.45
2023-03-20T18:42:09.778Z,2.63
2023-03-20T18:44:54.946Z,2.42
2023-03-20T18:47:40.551Z,2.35
2023-03-20T18:50:32.074Z,2.55
2023-03-20T18:53:26.647Z,2.45
2023-03-20T18:56:18.280Z,2.78
2023-03-20T18:59:04.954Z,2.20
2023-03-20T19:01:53.530Z,2.42
2023-03-20T19:04:39.436Z,2.42
2023-03-20T19:07:24.846Z,2.13
2023-03-20T19:10:29.059Z,2.20
2023-03-20T19:13:17.783Z,2.27
2023-03-20T19:16:04.051Z,2.30
2023-03-20T19:18:49.284Z,2.60
2023-03-20T19:21:35.283Z,2.40
2023-03-20T19:24:20.520Z,2.13
2023-03-20T19:27:06.387Z,2.60
2023-03-20T19:29:51.757Z,4.07
2023-03-20T19:32:37.145Z,3.90
2023-03-20T19:38:29.422Z,2.60
2023-03-20T19:41:21.325Z,2.10
2023-03-20T19:44:07.744Z,2.53
2023-03-20T19:46:53.769Z,2.30
2023-03-20T19:49:39.449Z,2.47
2023-03-20T19:52:32.170Z,2.53
2023-03-20T19:55:17.560Z,2.50
2023-03-20T19:58:03.591Z,2.47
2023-03-20T20:01:11.620Z,2.30
2023-03-20T20:03:55.035Z,2.50
2023-03-20T20:06:42.760Z,2.40
2023-03-20T20:09:27.941Z,2.40
2023-03-20T20:12:13.927Z,2.33
2023-03-20T20:15:00.397Z,2.37
2023-03-20T20:17:47.581Z,2.60
2023-03-20T20:20:34.646Z,2.47
2023-03-20T20:23:26.150Z,2.50
2023-03-20T20:26:11.670Z,2.53
2023-03-20T20:28:59.869Z,2.53
2023-03-20T20:31:45.393Z,2.10
2023-03-20T20:40:45.500Z,2.33
2023-03-20T20:44:06.728Z,2.40
2023-03-20T20:46:36.061Z,2.70
2023-03-20T20:49:21.202Z,2.53
2023-03-20T20:52:07.481Z,2.90
2023-03-20T20:54:52.912Z,2.90
2023-03-20T20:57:38.472Z,2.90
2023-03-20T21:00:34.063Z,2.50
2023-03-20T21:03:26.858Z,2.83
2023-03-20T21:06:12.324Z,3.00
2023-03-20T21:08:57.513Z,2.53
2023-03-20T21:11:42.408Z,2.97
2023-03-20T21:14:27.524Z,2.90
2023-03-20T21:17:12.740Z,2.73
2023-03-20T21:19:58.136Z,2.97
2023-03-20T21:22:43.322Z,2.97
2023-03-20T21:25:39.545Z,3.00
2023-03-20T21:28:26.118Z,2.87
2023-03-20T21:31:24.491Z,3.10
2023-03-20T21:34:10.888Z,3.00
2023-03-20T21:36:59.642Z,3.07
2023-03-20T21:39:46.099Z,3.17
2023-03-20T21:42:31.312Z,3.27
2023-03-20T21:49:03.915Z,2.87
2023-03-20T21:58:17.344Z,2.97
2023-03-20T22:07:35.963Z,2.90
2023-03-20T22:10:39.788Z,3.37
2023-03-20T22:17:10.204Z,3.23
2023-03-20T22:20:07.185Z,3.30
2023-03-20T22:26:04.812Z,3.20
2023-03-20T22:32:20.776Z,2.93
2023-03-20T22:35:37.973Z,3.20
2023-03-20T22:47:04.970Z,2.73
2023-03-20T22:49:50.338Z,2.90
2023-03-20T22:52:48.279Z,2.97
2023-03-20T22:55:34.713Z,3.30
2023-03-20T22:58:20.143Z,3.10
2023-03-20T23:01:06.122Z,3.00
2023-03-20T23:03:51.158Z,2.97
2023-03-20T23:06:36.334Z,3.40
2023-03-20T23:09:21.506Z,2.93
2023-03-20T23:12:06.926Z,3.30
2023-03-20T23:14:52.427Z,2.97
2023-03-20T23:17:37.965Z,2.80
2023-03-20T23:20:23.474Z,2.73
2023-03-20T23:23:09.117Z,2.70
2023-03-20T23:26:03.397Z,2.73
2023-03-20T23:28:50.926Z,2.80
2023-03-20T23:31:36.324Z,2.77
2023-03-20T23:34:21.632Z,2.80
2023-03-20T23:37:06.845Z,2.70
2023-03-20T23:39:52.079Z,2.60
2023-03-20T23:42:37.657Z,3.00
2023-03-20T23:45:22.746Z,2.90
2023-03-20T23:48:08.222Z,2.70
2023-03-20T23:50:53.897Z,2.73
2023-03-20T23:53:39.002Z,2.67
2023-03-20T23:56:24.248Z,2.90
2023-03-20T23:59:20.543Z,2.83
